sensor_id;sensor_type;location;lat;lon;timestamp;P1;durP1;ratioP1;P2;durP2;ratioP2
25938;SDS011;13739;51.172;4.466;2023-02-17T00:01:14;4.20;;;2.55;;
25938;SDS011;13739;51.172;4.466;2023-02-17T00:03:51;4.72;;;2.58;;
25938;SDS011;13739;51.172;4.466;2023-02-17T00:06:18;8.82;;;3.60;;
25938;SDS011;13739;51.172;4.466;2023-02-17T00:08:46;5.85;;;2.90;;
25938;SDS011;13739;51.172;4.466;2023-02-17T00:11:12;4.38;;;2.70;;
25938;SDS011;13739;51.172;4.466;2023-02-17T00:13:39;4.95;;;2.65;;
25938;SDS011;13739;51.172;4.466;2023-02-17T00:16:11;7.72;;;2.90;;
25938;SDS011;13739;51.172;4.466;2023-02-17T00:18:40;5.78;;;3.40;;
25938;SDS011;13739;51.172;4.466;2023-02-17T00:21:10;6.28;;;3.03;;
25938;SDS011;13739;51.172;4.466;2023-02-17T00:23:37;4.38;;;2.72;;
25938;SDS011;13739;51.172;4.466;2023-02-17T00:26:04;4.25;;;2.58;;
25938;SDS011;13739;51.172;4.466;2023-02-17T00:28:30;4.35;;;2.70;;
25938;SDS011;13739;51.172;4.466;2023-02-17T00:30:56;4.28;;;2.67;;
25938;SDS011;13739;51.172;4.466;2023-02-17T00:33:21;3.60;;;2.10;;
25938;SDS011;13739;51.172;4.466;2023-02-17T00:35:47;4.53;;;2.70;;
25938;SDS011;13739;51.172;4.466;2023-02-17T00:38:13;6.90;;;2.85;;
25938;SDS011;13739;51.172;4.466;2023-02-17T00:40:38;3.85;;;2.42;;
25938;SDS011;13739;51.172;4.466;2023-02-17T00:43:05;4.50;;;2.30;;
25938;SDS011;13739;51.172;4.466;2023-02-17T00:45:31;3.90;;;2.33;;
25938;SDS011;13739;51.172;4.466;2023-02-17T00:47:57;4.68;;;3.10;;
25938;SDS011;13739;51.172;4.466;2023-02-17T00:50:22;7.07;;;2.70;;
25938;SDS011;13739;51.172;4.466;2023-02-17T00:52:48;5.63;;;2.95;;
25938;SDS011;13739;51.172;4.466;2023-02-17T00:55:13;5.50;;;3.03;;
25938;SDS011;13739;51.172;4.466;2023-02-17T00:57:39;5.40;;;3.00;;
25938;SDS011;13739;51.172;4.466;2023-02-17T01:00:05;6.97;;;3.30;;
25938;SDS011;13739;51.172;4.466;2023-02-17T01:02:31;6.55;;;3.63;;
25938;SDS011;13739;51.172;4.466;2023-02-17T01:04:57;4.65;;;3.15;;
25938;SDS011;13739;51.172;4.466;2023-02-17T01:07:23;6.10;;;3.22;;
25938;SDS011;13739;51.172;4.466;2023-02-17T01:09:48;4.97;;;3.30;;
25938;SDS011;13739;51.172;4.466;2023-02-17T01:12:14;9.15;;;3.85;;
25938;SDS011;13739;51.172;4.466;2023-02-17T01:14:40;5.50;;;3.28;;
25938;SDS011;13739;51.172;4.466;2023-02-17T01:17:06;5.47;;;3.33;;
25938;SDS011;13739;51.172;4.466;2023-02-17T01:19:31;5.90;;;3.38;;
25938;SDS011;13739;51.172;4.466;2023-02-17T01:21:57;6.65;;;3.45;;
25938;SDS011;13739;51.172;4.466;2023-02-17T01:24:22;7.13;;;3.47;;
25938;SDS011;13739;51.172;4.466;2023-02-17T01:26:48;6.32;;;3.38;;
25938;SDS011;13739;51.172;4.466;2023-02-17T01:29:14;5.35;;;3.85;;
25938;SDS011;13739;51.172;4.466;2023-02-17T01:31:39;7.47;;;3.67;;
25938;SDS011;13739;51.172;4.466;2023-02-17T01:34:05;5.05;;;3.30;;
25938;SDS011;13739;51.172;4.466;2023-02-17T01:36:31;6.22;;;3.35;;
25938;SDS011;13739;51.172;4.466;2023-02-17T01:38:57;7.53;;;3.50;;
25938;SDS011;13739;51.172;4.466;2023-02-17T01:41:24;4.82;;;3.22;;
25938;SDS011;13739;51.172;4.466;2023-02-17T01:44:04;5.88;;;3.20;;
25938;SDS011;13739;51.172;4.466;2023-02-17T01:46:59;5.35;;;2.92;;
25938;SDS011;13739;51.172;4.466;2023-02-17T01:49:27;5.28;;;3.15;;
25938;SDS011;13739;51.172;4.466;2023-02-17T01:52:13;5.72;;;3.17;;
25938;SDS011;13739;51.172;4.466;2023-02-17T01:54:46;5.22;;;3.00;;
25938;SDS011;13739;51.172;4.466;2023-02-17T01:57:21;5.18;;;3.15;;
25938;SDS011;13739;51.172;4.466;2023-02-17T01:59:50;6.22;;;2.95;;
25938;SDS011;13739;51.172;4.466;2023-02-17T02:02:16;8.52;;;3.13;;
25938;SDS011;13739;51.172;4.466;2023-02-17T02:04:43;5.18;;;2.95;;
25938;SDS011;13739;51.172;4.466;2023-02-17T02:07:13;6.40;;;3.10;;
25938;SDS011;13739;51.172;4.466;2023-02-17T02:09:45;4.72;;;2.60;;
25938;SDS011;13739;51.172;4.466;2023-02-17T02:12:15;6.10;;;3.35;;
25938;SDS011;13739;51.172;4.466;2023-02-17T02:14:43;5.88;;;3.15;;
25938;SDS011;13739;51.172;4.466;2023-02-17T02:25:56;5.67;;;2.90;;
25938;SDS011;13739;51.172;4.466;2023-02-17T02:34:08;4.35;;;2.70;;
25938;SDS011;13739;51.172;4.466;2023-02-17T02:36:45;5.57;;;3.00;;
25938;SDS011;13739;51.172;4.466;2023-02-17T02:39:17;5.13;;;2.85;;
25938;SDS011;13739;51.172;4.466;2023-02-17T02:41:46;5.13;;;2.92;;
25938;SDS011;13739;51.172;4.466;2023-02-17T02:44:18;4.90;;;2.88;;
25938;SDS011;13739;51.172;4.466;2023-02-17T02:46:54;5.85;;;2.78;;
25938;SDS011;13739;51.172;4.466;2023-02-17T02:49:23;5.30;;;2.50;;
25938;SDS011;13739;51.172;4.466;2023-02-17T02:59:49;3.50;;;2.17;;
25938;SDS011;13739;51.172;4.466;2023-02-17T03:07:41;4.53;;;2.63;;
25938;SDS011;13739;51.172;4.466;2023-02-17T03:10:13;6.70;;;3.08;;
25938;SDS011;13739;51.172;4.466;2023-02-17T03:12:39;4.88;;;2.67;;
25938;SDS011;13739;51.172;4.466;2023-02-17T03:15:11;5.18;;;2.88;;
25938;SDS011;13739;51.172;4.466;2023-02-17T03:17:47;6.20;;;2.85;;
25938;SDS011;13739;51.172;4.466;2023-02-17T03:20:13;6.75;;;2.70;;
25938;SDS011;13739;51.172;4.466;2023-02-17T03:22:40;5.90;;;2.70;;
25938;SDS011;13739;51.172;4.466;2023-02-17T03:25:10;3.85;;;2.30;;
25938;SDS011;13739;51.172;4.466;2023-02-17T03:27:35;5.60;;;2.55;;
25938;SDS011;13739;51.172;4.466;2023-02-17T03:30:01;3.20;;;2.28;;
25938;SDS011;13739;51.172;4.466;2023-02-17T03:32:28;3.33;;;2.17;;
25938;SDS011;13739;51.172;4.466;2023-02-17T03:34:54;4.35;;;2.33;;
25938;SDS011;13739;51.172;4.466;2023-02-17T03:37:19;4.28;;;2.35;;
25938;SDS011;13739;51.172;4.466;2023-02-17T03:39:45;3.55;;;2.20;;
25938;SDS011;13739;51.172;4.466;2023-02-17T03:42:11;3.63;;;2.10;;
25938;SDS011;13739;51.172;4.466;2023-02-17T03:44:36;4.40;;;2.35;;
25938;SDS011;13739;51.172;4.466;2023-02-17T03:47:02;5.95;;;2.47;;
25938;SDS011;13739;51.172;4.466;2023-02-17T03:49:28;5.65;;;2.53;;
25938;SDS011;13739;51.172;4.466;2023-02-17T03:51:53;5.32;;;2.58;;
25938;SDS011;13739;51.172;4.466;2023-02-17T03:54:19;5.03;;;2.35;;
25938;SDS011;13739;51.172;4.466;2023-02-17T03:56:45;7.28;;;2.60;;
25938;SDS011;13739;51.172;4.466;2023-02-17T03:59:10;5.78;;;2.60;;
25938;SDS011;13739;51.172;4.466;2023-02-17T04:01:36;6.60;;;2.90;;
25938;SDS011;13739;51.172;4.466;2023-02-17T04:04:02;8.52;;;2.63;;
25938;SDS011;13739;51.172;4.466;2023-02-17T04:06:27;4.40;;;2.53;;
25938;SDS011;13739;51.172;4.466;2023-02-17T04:08:53;5.63;;;3.03;;
25938;SDS011;13739;51.172;4.466;2023-02-17T04:11:19;5.55;;;2.42;;
25938;SDS011;13739;51.172;4.466;2023-02-17T04:13:44;5.15;;;2.70;;
25938;SDS011;13739;51.172;4.466;2023-02-17T04:16:10;7.75;;;3.00;;
25938;SDS011;13739;51.172;4.466;2023-02-17T04:18:36;8.15;;;2.53;;
25938;SDS011;13739;51.172;4.466;2023-02-17T04:21:03;6.10;;;2.90;;
25938;SDS011;13739;51.172;4.466;2023-02-17T04:23:29;5.78;;;2.88;;
25938;SDS011;13739;51.172;4.466;2023-02-17T04:25:55;5.93;;;3.45;;
25938;SDS011;13739;51.172;4.466;2023-02-17T04:28:21;8.23;;;3.08;;
25938;SDS011;13739;51.172;4.466;2023-02-17T04:30:47;7.65;;;3.67;;
25938;SDS011;13739;51.172;4.466;2023-02-17T04:33:15;6.65;;;2.90;;
25938;SDS011;13739;51.172;4.466;2023-02-17T04:35:41;6.90;;;2.95;;
25938;SDS011;13739;51.172;4.466;2023-02-17T04:38:07;10.25;;;3.58;;
25938;SDS011;13739;51.172;4.466;2023-02-17T04:40:34;10.02;;;3.10;;
25938;SDS011;13739;51.172;4.466;2023-02-17T04:43:01;7.55;;;3.78;;
25938;SDS011;13739;51.172;4.466;2023-02-17T04:45:27;8.63;;;3.33;;
25938;SDS011;13739;51.172;4.466;2023-02-17T04:47:53;9.40;;;3.63;;
25938;SDS011;13739;51.172;4.466;2023-02-17T04:50:18;10.60;;;3.30;;
25938;SDS011;13739;51.172;4.466;2023-02-17T04:52:44;8.00;;;3.40;;
25938;SDS011;13739;51.172;4.466;2023-02-17T04:55:10;7.90;;;4.15;;
25938;SDS011;13739;51.172;4.466;2023-02-17T04:57:36;6.72;;;3.20;;
25938;SDS011;13739;51.172;4.466;2023-02-17T05:00:02;13.32;;;4.45;;
25938;SDS011;13739;51.172;4.466;2023-02-17T05:02:29;13.18;;;4.22;;
25938;SDS011;13739;51.172;4.466;2023-02-17T05:04:55;8.82;;;3.75;;
25938;SDS011;13739;51.172;4.466;2023-02-17T05:07:21;6.72;;;3.13;;
25938;SDS011;13739;51.172;4.466;2023-02-17T05:09:47;9.88;;;4.00;;
25938;SDS011;13739;51.172;4.466;2023-02-17T05:12:12;16.08;;;4.75;;
25938;SDS011;13739;51.172;4.466;2023-02-17T05:14:38;11.88;;;3.97;;
25938;SDS011;13739;51.172;4.466;2023-02-17T05:17:04;9.13;;;3.72;;
25938;SDS011;13739;51.172;4.466;2023-02-17T05:19:29;12.93;;;4.78;;
25938;SDS011;13739;51.172;4.466;2023-02-17T05:21:55;14.45;;;4.50;;
25938;SDS011;13739;51.172;4.466;2023-02-17T05:24:21;13.35;;;4.45;;
25938;SDS011;13739;51.172;4.466;2023-02-17T05:26:47;9.18;;;3.90;;
25938;SDS011;13739;51.172;4.466;2023-02-17T05:29:12;12.82;;;4.25;;
25938;SDS011;13739;51.172;4.466;2023-02-17T05:31:38;10.65;;;4.18;;
25938;SDS011;13739;51.172;4.466;2023-02-17T05:34:04;11.70;;;4.15;;
25938;SDS011;13739;51.172;4.466;2023-02-17T05:36:29;8.88;;;4.05;;
25938;SDS011;13739;51.172;4.466;2023-02-17T05:38:55;14.02;;;4.47;;
25938;SDS011;13739;51.172;4.466;2023-02-17T05:41:21;10.52;;;4.20;;
25938;SDS011;13739;51.172;4.466;2023-02-17T05:43:46;14.02;;;4.47;;
25938;SDS011;13739;51.172;4.466;2023-02-17T05:46:12;13.13;;;4.43;;
25938;SDS011;13739;51.172;4.466;2023-02-17T05:48:38;9.07;;;3.97;;
25938;SDS011;13739;51.172;4.466;2023-02-17T05:51:04;10.48;;;4.13;;
25938;SDS011;13739;51.172;4.466;2023-02-17T05:53:30;9.30;;;4.60;;
25938;SDS011;13739;51.172;4.466;2023-02-17T05:55:56;7.65;;;4.28;;
25938;SDS011;13739;51.172;4.466;2023-02-17T05:58:22;11.85;;;4.13;;
25938;SDS011;13739;51.172;4.466;2023-02-17T06:00:48;11.65;;;4.28;;
25938;SDS011;13739;51.172;4.466;2023-02-17T06:03:14;9.80;;;4.00;;
25938;SDS011;13739;51.172;4.466;2023-02-17T06:05:40;9.02;;;4.35;;
25938;SDS011;13739;51.172;4.466;2023-02-17T06:08:06;8.32;;;4.30;;
25938;SDS011;13739;51.172;4.466;2023-02-17T06:10:31;8.60;;;4.18;;
25938;SDS011;13739;51.172;4.466;2023-02-17T06:12:57;11.52;;;4.53;;
25938;SDS011;13739;51.172;4.466;2023-02-17T06:15:23;9.90;;;4.07;;
25938;SDS011;13739;51.172;4.466;2023-02-17T06:17:49;11.35;;;4.20;;
25938;SDS011;13739;51.172;4.466;2023-02-17T06:20:15;9.00;;;4.18;;
25938;SDS011;13739;51.172;4.466;2023-02-17T06:22:41;10.45;;;4.43;;
25938;SDS011;13739;51.172;4.466;2023-02-17T06:25:07;13.07;;;4.40;;
25938;SDS011;13739;51.172;4.466;2023-02-17T06:27:33;14.32;;;4.38;;
25938;SDS011;13739;51.172;4.466;2023-02-17T06:29:58;9.27;;;3.88;;
25938;SDS011;13739;51.172;4.466;2023-02-17T06:32:24;11.02;;;4.28;;
25938;SDS011;13739;51.172;4.466;2023-02-17T06:34:50;7.90;;;3.95;;
25938;SDS011;13739;51.172;4.466;2023-02-17T06:37:15;8.85;;;4.05;;
25938;SDS011;13739;51.172;4.466;2023-02-17T06:39:41;10.20;;;4.25;;
25938;SDS011;13739;51.172;4.466;2023-02-17T06:42:07;9.18;;;4.38;;
25938;SDS011;13739;51.172;4.466;2023-02-17T06:44:32;7.20;;;3.38;;
25938;SDS011;13739;51.172;4.466;2023-02-17T06:46:58;11.55;;;4.60;;
25938;SDS011;13739;51.172;4.466;2023-02-17T06:49:24;7.57;;;4.40;;
25938;SDS011;13739;51.172;4.466;2023-02-17T06:51:49;8.93;;;4.10;;
25938;SDS011;13739;51.172;4.466;2023-02-17T06:54:15;8.80;;;4.40;;
25938;SDS011;13739;51.172;4.466;2023-02-17T06:56:41;8.00;;;3.80;;
25938;SDS011;13739;51.172;4.466;2023-02-17T06:59:07;7.47;;;3.78;;
25938;SDS011;13739;51.172;4.466;2023-02-17T07:01:33;12.20;;;4.57;;
25938;SDS011;13739;51.172;4.466;2023-02-17T07:03:58;9.23;;;4.65;;
25938;SDS011;13739;51.172;4.466;2023-02-17T07:06:24;8.13;;;3.70;;
25938;SDS011;13739;51.172;4.466;2023-02-17T07:08:50;9.55;;;4.70;;
25938;SDS011;13739;51.172;4.466;2023-02-17T07:11:16;7.50;;;3.90;;
25938;SDS011;13739;51.172;4.466;2023-02-17T07:13:43;8.02;;;3.95;;
25938;SDS011;13739;51.172;4.466;2023-02-17T07:16:09;8.93;;;4.53;;
25938;SDS011;13739;51.172;4.466;2023-02-17T07:18:37;8.80;;;4.30;;
25938;SDS011;13739;51.172;4.466;2023-02-17T07:21:03;9.52;;;4.57;;
25938;SDS011;13739;51.172;4.466;2023-02-17T07:23:30;8.82;;;4.35;;
25938;SDS011;13739;51.172;4.466;2023-02-17T07:25:59;8.85;;;4.07;;
25938;SDS011;13739;51.172;4.466;2023-02-17T07:28:29;7.05;;;3.60;;
25938;SDS011;13739;51.172;4.466;2023-02-17T07:30:55;6.95;;;3.72;;
25938;SDS011;13739;51.172;4.466;2023-02-17T07:33:21;9.50;;;4.60;;
25938;SDS011;13739;51.172;4.466;2023-02-17T07:35:46;6.95;;;4.03;;
25938;SDS011;13739;51.172;4.466;2023-02-17T07:38:12;7.88;;;4.53;;
25938;SDS011;13739;51.172;4.466;2023-02-17T07:40:38;6.90;;;3.92;;
25938;SDS011;13739;51.172;4.466;2023-02-17T07:43:04;6.72;;;4.00;;
25938;SDS011;13739;51.172;4.466;2023-02-17T07:45:30;7.05;;;3.63;;
25938;SDS011;13739;51.172;4.466;2023-02-17T07:47:55;6.95;;;3.60;;
25938;SDS011;13739;51.172;4.466;2023-02-17T07:50:21;7.75;;;3.92;;
25938;SDS011;13739;51.172;4.466;2023-02-17T07:52:47;6.65;;;3.78;;
25938;SDS011;13739;51.172;4.466;2023-02-17T07:55:14;5.97;;;3.55;;
25938;SDS011;13739;51.172;4.466;2023-02-17T07:57:39;3.85;;;2.75;;
25938;SDS011;13739;51.172;4.466;2023-02-17T08:00:05;6.97;;;3.65;;
25938;SDS011;13739;51.172;4.466;2023-02-17T08:02:31;5.40;;;3.15;;
25938;SDS011;13739;51.172;4.466;2023-02-17T08:04:57;7.57;;;3.38;;
25938;SDS011;13739;51.172;4.466;2023-02-17T08:07:23;4.28;;;3.08;;
25938;SDS011;13739;51.172;4.466;2023-02-17T08:09:48;5.32;;;3.42;;
25938;SDS011;13739;51.172;4.466;2023-02-17T08:12:33;5.28;;;3.40;;
25938;SDS011;13739;51.172;4.466;2023-02-17T08:15:17;6.40;;;3.65;;
25938;SDS011;13739;51.172;4.466;2023-02-17T08:17:42;4.70;;;3.53;;
25938;SDS011;13739;51.172;4.466;2023-02-17T08:20:08;5.63;;;3.72;;
25938;SDS011;13739;51.172;4.466;2023-02-17T08:22:34;6.72;;;3.38;;
25938;SDS011;13739;51.172;4.466;2023-02-17T08:25:00;6.47;;;3.40;;
25938;SDS011;13739;51.172;4.466;2023-02-17T08:27:26;4.07;;;2.80;;
25938;SDS011;13739;51.172;4.466;2023-02-17T08:29:52;6.03;;;3.20;;
25938;SDS011;13739;51.172;4.466;2023-02-17T08:32:18;4.07;;;3.13;;
25938;SDS011;13739;51.172;4.466;2023-02-17T08:34:43;3.70;;;2.90;;
25938;SDS011;13739;51.172;4.466;2023-02-17T08:37:09;3.67;;;2.70;;
25938;SDS011;13739;51.172;4.466;2023-02-17T08:39:35;6.55;;;2.72;;
25938;SDS011;13739;51.172;4.466;2023-02-17T08:42:02;3.70;;;2.60;;
25938;SDS011;13739;51.172;4.466;2023-02-17T08:44:28;3.95;;;2.70;;
25938;SDS011;13739;51.172;4.466;2023-02-17T08:46:54;5.80;;;2.67;;
25938;SDS011;13739;51.172;4.466;2023-02-17T08:49:21;6.10;;;2.67;;
25938;SDS011;13739;51.172;4.466;2023-02-17T08:51:49;3.22;;;2.35;;
25938;SDS011;13739;51.172;4.466;2023-02-17T08:54:16;3.17;;;2.10;;
25938;SDS011;13739;51.172;4.466;2023-02-17T08:56:42;3.58;;;2.00;;
25938;SDS011;13739;51.172;4.466;2023-02-17T08:59:09;12.38;;;2.30;;
25938;SDS011;13739;51.172;4.466;2023-02-17T09:01:36;2.47;;;1.85;;
25938;SDS011;13739;51.172;4.466;2023-02-17T09:04:03;3.97;;;1.60;;
25938;SDS011;13739;51.172;4.466;2023-02-17T09:06:31;1.70;;;1.40;;
25938;SDS011;13739;51.172;4.466;2023-02-17T09:09:00;2.88;;;1.58;;
25938;SDS011;13739;51.172;4.466;2023-02-17T09:11:26;1.67;;;1.50;;
25938;SDS011;13739;51.172;4.466;2023-02-17T09:13:52;2.80;;;1.30;;
25938;SDS011;13739;51.172;4.466;2023-02-17T09:16:18;1.90;;;1.17;;
25938;SDS011;13739;51.172;4.466;2023-02-17T09:18:45;2.08;;;1.30;;
25938;SDS011;13739;51.172;4.466;2023-02-17T09:21:11;3.88;;;1.38;;
25938;SDS011;13739;51.172;4.466;2023-02-17T09:23:38;2.08;;;1.38;;
25938;SDS011;13739;51.172;4.466;2023-02-17T09:26:08;3.35;;;1.30;;
25938;SDS011;13739;51.172;4.466;2023-02-17T09:28:35;1.55;;;1.10;;
25938;SDS011;13739;51.172;4.466;2023-02-17T09:31:09;1.55;;;1.20;;
25938;SDS011;13739;51.172;4.466;2023-02-17T09:33:40;2.08;;;1.23;;
25938;SDS011;13739;51.172;4.466;2023-02-17T09:36:06;1.77;;;1.17;;
25938;SDS011;13739;51.172;4.466;2023-02-17T09:38:34;2.00;;;1.10;;
25938;SDS011;13739;51.172;4.466;2023-02-17T09:41:13;1.60;;;1.00;;
25938;SDS011;13739;51.172;4.466;2023-02-17T09:43:46;2.38;;;1.17;;
25938;SDS011;13739;51.172;4.466;2023-02-17T09:46:32;1.85;;;1.02;;
25938;SDS011;13739;51.172;4.466;2023-02-17T09:49:11;1.42;;;1.17;;
25938;SDS011;13739;51.172;4.466;2023-02-17T09:54:45;0.90;;;0.80;;
25938;SDS011;13739;51.172;4.466;2023-02-17T09:57:56;1.95;;;0.95;;
25938;SDS011;13739;51.172;4.466;2023-02-17T10:00:41;2.75;;;1.13;;
25938;SDS011;13739;51.172;4.466;2023-02-17T10:03:29;1.15;;;0.90;;
25938;SDS011;13739;51.172;4.466;2023-02-17T10:08:32;1.10;;;0.90;;
25938;SDS011;13739;51.172;4.466;2023-02-17T10:11:30;3.55;;;1.15;;
25938;SDS011;13739;51.172;4.466;2023-02-17T10:13:59;5.85;;;1.10;;
25938;SDS011;13739;51.172;4.466;2023-02-17T10:16:47;2.05;;;1.00;;
25938;SDS011;13739;51.172;4.466;2023-02-17T10:19:35;2.50;;;1.10;;
25938;SDS011;13739;51.172;4.466;2023-02-17T10:22:13;1.75;;;1.10;;
25938;SDS011;13739;51.172;4.466;2023-02-17T10:24:41;1.95;;;0.98;;
25938;SDS011;13739;51.172;4.466;2023-02-17T10:30:25;2.42;;;0.90;;
25938;SDS011;13739;51.172;4.466;2023-02-17T10:32:57;1.20;;;0.82;;
25938;SDS011;13739;51.172;4.466;2023-02-17T10:35:40;2.60;;;1.42;;
25938;SDS011;13739;51.172;4.466;2023-02-17T10:41:05;1.77;;;1.13;;
25938;SDS011;13739;51.172;4.466;2023-02-17T10:43:37;1.63;;;1.30;;
25938;SDS011;13739;51.172;4.466;2023-02-17T10:46:04;1.23;;;1.02;;
25938;SDS011;13739;51.172;4.466;2023-02-17T10:48:49;3.17;;;1.30;;
25938;SDS011;13739;51.172;4.466;2023-02-17T10:51:21;2.38;;;1.17;;
25938;SDS011;13739;51.172;4.466;2023-02-17T10:53:52;3.22;;;1.40;;
25938;SDS011;13739;51.172;4.466;2023-02-17T10:56:25;1.83;;;1.40;;
25938;SDS011;13739;51.172;4.466;2023-02-17T10:59:19;2.70;;;1.42;;
25938;SDS011;13739;51.172;4.466;2023-02-17T11:01:50;2.42;;;1.40;;
25938;SDS011;13739;51.172;4.466;2023-02-17T11:04:18;3.17;;;1.20;;
25938;SDS011;13739;51.172;4.466;2023-02-17T11:06:46;2.13;;;1.42;;
25938;SDS011;13739;51.172;4.466;2023-02-17T11:09:21;3.80;;;1.30;;
25938;SDS011;13739;51.172;4.466;2023-02-17T11:14:42;2.65;;;1.48;;
25938;SDS011;13739;51.172;4.466;2023-02-17T11:20:00;3.00;;;1.23;;
25938;SDS011;13739;51.172;4.466;2023-02-17T11:22:37;3.33;;;1.30;;
25938;SDS011;13739;51.172;4.466;2023-02-17T11:25:27;3.22;;;1.77;;
25938;SDS011;13739;51.172;4.466;2023-02-17T11:27:59;2.38;;;1.30;;
25938;SDS011;13739;51.172;4.466;2023-02-17T11:30:28;6.32;;;1.70;;
25938;SDS011;13739;51.172;4.466;2023-02-17T11:32:55;3.20;;;1.48;;
25938;SDS011;13739;51.172;4.466;2023-02-17T11:38:16;2.88;;;1.40;;
25938;SDS011;13739;51.172;4.466;2023-02-17T11:40:54;6.90;;;1.80;;
25938;SDS011;13739;51.172;4.466;2023-02-17T11:43:27;4.10;;;1.70;;
25938;SDS011;13739;51.172;4.466;2023-02-17T11:45:58;3.38;;;1.67;;
25938;SDS011;13739;51.172;4.466;2023-02-17T11:54:25;4.43;;;1.52;;
25938;SDS011;13739;51.172;4.466;2023-02-17T11:57:23;2.70;;;1.27;;
25938;SDS011;13739;51.172;4.466;2023-02-17T12:14:46;5.78;;;1.25;;
25938;SDS011;13739;51.172;4.466;2023-02-17T12:26:14;2.25;;;1.30;;
25938;SDS011;13739;51.172;4.466;2023-02-17T12:29:12;2.40;;;1.38;;
25938;SDS011;13739;51.172;4.466;2023-02-17T12:32:05;4.22;;;1.17;;
25938;SDS011;13739;51.172;4.466;2023-02-17T12:37:28;1.48;;;1.10;;
25938;SDS011;13739;51.172;4.466;2023-02-17T12:40:00;2.20;;;1.15;;
25938;SDS011;13739;51.172;4.466;2023-02-17T12:42:37;3.55;;;1.00;;
25938;SDS011;13739;51.172;4.466;2023-02-17T12:47:52;1.88;;;1.00;;
25938;SDS011;13739;51.172;4.466;2023-02-17T12:50:38;3.50;;;0.80;;
25938;SDS011;13739;51.172;4.466;2023-02-17T12:53:17;6.35;;;0.90;;
25938;SDS011;13739;51.172;4.466;2023-02-17T12:59:15;1.27;;;0.77;;
25938;SDS011;13739;51.172;4.466;2023-02-17T13:01:48;2.53;;;1.10;;
25938;SDS011;13739;51.172;4.466;2023-02-17T13:04:35;1.80;;;1.00;;
25938;SDS011;13739;51.172;4.466;2023-02-17T13:07:07;1.65;;;0.88;;
25938;SDS011;13739;51.172;4.466;2023-02-17T13:09:41;1.30;;;0.85;;
25938;SDS011;13739;51.172;4.466;2023-02-17T13:14:54;5.43;;;1.30;;
25938;SDS011;13739;51.172;4.466;2023-02-17T13:17:22;3.38;;;0.75;;
25938;SDS011;13739;51.172;4.466;2023-02-17T13:23:13;1.20;;;0.93;;
25938;SDS011;13739;51.172;4.466;2023-02-17T13:26:09;2.00;;;1.10;;
25938;SDS011;13739;51.172;4.466;2023-02-17T13:28:37;4.20;;;1.13;;
25938;SDS011;13739;51.172;4.466;2023-02-17T13:31:11;4.15;;;1.00;;
25938;SDS011;13739;51.172;4.466;2023-02-17T13:33:41;1.35;;;1.00;;
25938;SDS011;13739;51.172;4.466;2023-02-17T13:36:17;1.92;;;1.02;;
25938;SDS011;13739;51.172;4.466;2023-02-17T13:39:03;1.65;;;1.20;;
25938;SDS011;13739;51.172;4.466;2023-02-17T13:41:58;2.55;;;1.20;;
25938;SDS011;13739;51.172;4.466;2023-02-17T13:44:27;2.92;;;1.45;;
25938;SDS011;13739;51.172;4.466;2023-02-17T13:47:10;3.58;;;1.10;;
25938;SDS011;13739;51.172;4.466;2023-02-17T13:49:56;2.95;;;1.25;;
25938;SDS011;13739;51.172;4.466;2023-02-17T13:52:23;2.45;;;1.60;;
25938;SDS011;13739;51.172;4.466;2023-02-17T13:54:53;2.15;;;1.30;;
25938;SDS011;13739;51.172;4.466;2023-02-17T13:57:29;2.70;;;1.45;;
25938;SDS011;13739;51.172;4.466;2023-02-17T14:05:45;1.90;;;1.10;;
25938;SDS011;13739;51.172;4.466;2023-02-17T14:13:39;2.38;;;1.33;;
25938;SDS011;13739;51.172;4.466;2023-02-17T14:16:20;2.20;;;1.00;;
25938;SDS011;13739;51.172;4.466;2023-02-17T14:19:10;2.70;;;1.00;;
25938;SDS011;13739;51.172;4.466;2023-02-17T14:24:29;2.70;;;1.27;;
25938;SDS011;13739;51.172;4.466;2023-02-17T14:27:05;2.28;;;1.30;;
25938;SDS011;13739;51.172;4.466;2023-02-17T14:37:38;3.38;;;1.60;;
25938;SDS011;13739;51.172;4.466;2023-02-17T14:40:06;2.50;;;1.58;;
25938;SDS011;13739;51.172;4.466;2023-02-17T14:42:42;4.72;;;1.60;;
25938;SDS011;13739;51.172;4.466;2023-02-17T14:45:09;3.35;;;1.60;;
25938;SDS011;13739;51.172;4.466;2023-02-17T14:47:35;3.55;;;2.05;;
25938;SDS011;13739;51.172;4.466;2023-02-17T14:50:00;3.55;;;2.10;;
25938;SDS011;13739;51.172;4.466;2023-02-17T14:52:26;4.47;;;1.95;;
25938;SDS011;13739;51.172;4.466;2023-02-17T14:54:52;4.03;;;2.70;;
25938;SDS011;13739;51.172;4.466;2023-02-17T14:57:18;4.53;;;2.17;;
25938;SDS011;13739;51.172;4.466;2023-02-17T14:59:51;3.45;;;2.35;;
25938;SDS011;13739;51.172;4.466;2023-02-17T15:02:21;3.83;;;2.20;;
25938;SDS011;13739;51.172;4.466;2023-02-17T15:04:47;4.57;;;2.65;;
25938;SDS011;13739;51.172;4.466;2023-02-17T15:07:15;5.03;;;2.63;;
25938;SDS011;13739;51.172;4.466;2023-02-17T15:09:46;4.53;;;2.45;;
25938;SDS011;13739;51.172;4.466;2023-02-17T15:12:17;3.85;;;2.40;;
25938;SDS011;13739;51.172;4.466;2023-02-17T15:14:44;4.07;;;2.53;;
25938;SDS011;13739;51.172;4.466;2023-02-17T15:17:13;7.00;;;2.38;;
25938;SDS011;13739;51.172;4.466;2023-02-17T15:19:39;6.07;;;2.33;;
25938;SDS011;13739;51.172;4.466;2023-02-17T15:22:09;5.47;;;2.50;;
25938;SDS011;13739;51.172;4.466;2023-02-17T15:24:36;5.60;;;2.72;;
25938;SDS011;13739;51.172;4.466;2023-02-17T15:27:03;5.82;;;2.72;;
25938;SDS011;13739;51.172;4.466;2023-02-17T15:29:30;6.50;;;2.58;;
25938;SDS011;13739;51.172;4.466;2023-02-17T15:31:58;5.60;;;2.53;;
25938;SDS011;13739;51.172;4.466;2023-02-17T15:34:31;4.97;;;2.40;;
25938;SDS011;13739;51.172;4.466;2023-02-17T15:36:57;3.88;;;2.00;;
25938;SDS011;13739;51.172;4.466;2023-02-17T15:39:24;5.60;;;2.40;;
25938;SDS011;13739;51.172;4.466;2023-02-17T15:41:50;5.28;;;2.40;;
25938;SDS011;13739;51.172;4.466;2023-02-17T15:44:19;8.35;;;2.78;;
25938;SDS011;13739;51.172;4.466;2023-02-17T15:46:48;5.43;;;2.30;;
25938;SDS011;13739;51.172;4.466;2023-02-17T15:49:15;5.70;;;2.70;;
25938;SDS011;13739;51.172;4.466;2023-02-17T15:51:41;7.07;;;3.05;;
25938;SDS011;13739;51.172;4.466;2023-02-17T15:54:07;5.30;;;2.15;;
25938;SDS011;13739;51.172;4.466;2023-02-17T15:56:36;3.75;;;2.20;;
25938;SDS011;13739;51.172;4.466;2023-02-17T15:59:18;7.75;;;2.60;;
25938;SDS011;13739;51.172;4.466;2023-02-17T16:01:46;4.95;;;2.38;;
25938;SDS011;13739;51.172;4.466;2023-02-17T16:04:13;6.10;;;2.78;;
25938;SDS011;13739;51.172;4.466;2023-02-17T16:06:39;7.45;;;2.80;;
25938;SDS011;13739;51.172;4.466;2023-02-17T16:09:05;8.35;;;2.30;;
25938;SDS011;13739;51.172;4.466;2023-02-17T16:11:31;4.80;;;2.20;;
25938;SDS011;13739;51.172;4.466;2023-02-17T16:13:58;4.78;;;2.28;;
25938;SDS011;13739;51.172;4.466;2023-02-17T16:16:26;3.40;;;1.95;;
25938;SDS011;13739;51.172;4.466;2023-02-17T16:18:56;5.35;;;1.95;;
25938;SDS011;13739;51.172;4.466;2023-02-17T16:21:25;7.35;;;2.40;;
25938;SDS011;13739;51.172;4.466;2023-02-17T16:23:51;3.33;;;1.98;;
25938;SDS011;13739;51.172;4.466;2023-02-17T16:26:35;6.80;;;2.38;;
25938;SDS011;13739;51.172;4.466;2023-02-17T16:29:03;6.38;;;2.10;;
25938;SDS011;13739;51.172;4.466;2023-02-17T16:31:38;3.58;;;2.00;;
25938;SDS011;13739;51.172;4.466;2023-02-17T16:34:04;7.70;;;2.35;;
25938;SDS011;13739;51.172;4.466;2023-02-17T16:36:30;4.15;;;2.25;;
25938;SDS011;13739;51.172;4.466;2023-02-17T16:38:59;4.90;;;2.53;;
25938;SDS011;13739;51.172;4.466;2023-02-17T16:41:30;6.38;;;3.20;;
25938;SDS011;13739;51.172;4.466;2023-02-17T16:43:56;4.85;;;2.42;;
25938;SDS011;13739;51.172;4.466;2023-02-17T16:48:59;7.07;;;2.53;;
25938;SDS011;13739;51.172;4.466;2023-02-17T16:51:26;5.32;;;2.50;;
25938;SDS011;13739;51.172;4.466;2023-02-17T16:53:52;8.48;;;3.20;;
25938;SDS011;13739;51.172;4.466;2023-02-17T16:56:21;5.40;;;2.53;;